createdAt,value
2023-02-19T00:00:10.023Z,995.16
2023-02-19T00:01:11.993Z,995.13
2023-02-19T00:02:13.453Z,995.17
2023-02-19T00:03:15.268Z,995.12
2023-02-19T00:04:16.945Z,995.09
2023-02-19T00:05:18.683Z,995.07
2023-02-19T00:06:20.404Z,995.08
2023-02-19T00:07:22.148Z,995.08
2023-02-19T00:08:24.080Z,995.04
2023-02-19T00:09:25.632Z,995.05
2023-02-19T00:10:27.320Z,995.03
2023-02-19T00:11:29.048Z,994.96
2023-02-19T00:12:30.826Z,994.99
2023-02-19T00:13:32.528Z,994.93
2023-02-19T00:14:34.284Z,994.94
2023-02-19T00:15:36.024Z,994.87
2023-02-19T00:16:37.714Z,994.86
2023-02-19T00:17:39.429Z,994.87
2023-02-19T00:18:41.192Z,994.88
2023-02-19T00:19:42.870Z,994.86
2023-02-19T00:20:44.608Z,994.9
2023-02-19T00:21:46.359Z,994.99
2023-02-19T00:22:48.094Z,994.95
2023-02-19T00:23:49.824Z,994.97
2023-02-19T00:24:51.569Z,994.94
2023-02-19T00:25:53.291Z,994.99
2023-02-19T00:26:55.031Z,994.94
2023-02-19T00:27:56.756Z,994.9
2023-02-19T00:28:58.484Z,994.97
2023-02-19T00:30:00.372Z,994.93
2023-02-19T00:31:02.016Z,994.94
2023-02-19T00:32:03.748Z,994.98
2023-02-19T00:33:05.405Z,994.99
2023-02-19T00:34:07.150Z,995.01
2023-02-19T00:35:08.904Z,995.03
2023-02-19T00:36:10.658Z,995.06
2023-02-19T00:37:12.404Z,995
2023-02-19T00:38:14.096Z,995.05
2023-02-19T00:39:16.076Z,995.06
2023-02-19T00:40:17.565Z,995.05
2023-02-19T00:41:19.361Z,995.03
2023-02-19T00:42:21.020Z,994.97
2023-02-19T00:43:22.763Z,995.03
2023-02-19T00:44:24.503Z,995.09
2023-02-19T00:45:26.266Z,994.98
2023-02-19T00:46:28.058Z,995.01
2023-02-19T00:47:29.698Z,994.93
2023-02-19T00:48:31.419Z,994.85
2023-02-19T00:49:33.177Z,994.77
2023-02-19T00:50:34.909Z,994.72
2023-02-19T00:51:36.695Z,994.63
2023-02-19T00:52:38.365Z,994.73
2023-02-19T00:53:40.136Z,994.81
2023-02-19T00:54:41.832Z,994.82
2023-02-19T00:55:43.581Z,994.85
2023-02-19T00:56:45.324Z,994.75
2023-02-19T00:57:47.161Z,994.77
2023-02-19T00:58:48.767Z,994.78
2023-02-19T00:59:50.520Z,994.8
2023-02-19T01:00:52.259Z,994.87
2023-02-19T01:01:54.010Z,994.87
2023-02-19T01:02:55.704Z,994.85
2023-02-19T01:03:57.438Z,994.86
2023-02-19T01:04:59.201Z,994.89
2023-02-19T01:06:00.909Z,994.8
2023-02-19T01:07:02.634Z,994.86
2023-02-19T01:08:04.373Z,994.87
2023-02-19T01:09:06.120Z,994.83
2023-02-19T01:10:07.865Z,994.79
2023-02-19T01:11:09.888Z,994.81
2023-02-19T01:12:11.291Z,994.81
2023-02-19T01:13:13.046Z,994.81
2023-02-19T01:14:14.777Z,994.81
2023-02-19T01:15:16.539Z,994.82
2023-02-19T01:16:18.322Z,994.78
2023-02-19T01:17:19.974Z,994.76
2023-02-19T01:18:21.761Z,994.8
2023-02-19T01:19:23.461Z,994.84
2023-02-19T01:20:25.318Z,994.77
2023-02-19T01:21:26.936Z,994.8
2023-02-19T01:22:28.682Z,994.78
2023-02-19T01:23:30.385Z,994.72
2023-02-19T01:24:32.121Z,994.69
2023-02-19T01:25:33.877Z,994.73
2023-02-19T01:26:35.590Z,994.72
2023-02-19T01:27:37.313Z,994.73
2023-02-19T01:28:39.046Z,994.74
2023-02-19T01:29:40.801Z,994.72
2023-02-19T01:30:42.548Z,994.72
2023-02-19T01:31:44.456Z,994.72
2023-02-19T01:32:45.998Z,994.59
2023-02-19T01:33:47.733Z,994.59
2023-02-19T01:34:49.460Z,994.61
2023-02-19T01:35:51.407Z,994.57
2023-02-19T01:36:52.933Z,994.67
2023-02-19T01:37:54.676Z,994.66
2023-02-19T01:38:56.397Z,994.65
2023-02-19T01:39:58.141Z,994.7
2023-02-19T01:40:59.886Z,994.72
2023-02-19T01:42:01.652Z,994.72
2023-02-19T01:43:03.340Z,994.72
2023-02-19T01:44:05.091Z,994.79
2023-02-19T01:45:06.799Z,994.75
2023-02-19T01:46:08.554Z,994.71
2023-02-19T01:47:10.328Z,994.69
2023-02-19T01:48:12.009Z,994.69
2023-02-19T01:49:13.753Z,994.61
2023-02-19T01:50:15.487Z,994.7
2023-02-19T01:51:17.235Z,994.63
2023-02-19T01:52:18.967Z,994.64
2023-02-19T01:53:20.678Z,994.6
2023-02-19T01:54:22.403Z,994.56
2023-02-19T01:55:24.129Z,994.55
2023-02-19T01:56:25.858Z,994.5
2023-02-19T01:57:27.561Z,994.41
2023-02-19T01:58:29.300Z,994.5
2023-02-19T01:59:31.055Z,994.49
2023-02-19T02:00:32.840Z,994.48
2023-02-19T02:01:34.516Z,994.42
2023-02-19T02:02:36.240Z,994.44
2023-02-19T02:03:37.988Z,994.43
2023-02-19T02:04:39.738Z,994.44
2023-02-19T02:05:41.448Z,994.43
2023-02-19T02:06:43.178Z,994.45
2023-02-19T02:07:44.915Z,994.42
2023-02-19T02:08:46.629Z,994.41
2023-02-19T02:09:48.374Z,994.43
2023-02-19T02:10:50.133Z,994.48
2023-02-19T02:11:51.831Z,994.49
2023-02-19T02:12:53.578Z,994.45
2023-02-19T02:13:55.304Z,994.44
2023-02-19T02:14:57.055Z,994.43
2023-02-19T02:15:58.811Z,994.34
2023-02-19T02:17:00.495Z,994.35
2023-02-19T02:18:02.264Z,994.37
2023-02-19T02:19:03.970Z,994.29
2023-02-19T02:20:05.701Z,994.32
2023-02-19T02:21:07.660Z,994.28
2023-02-19T02:22:09.176Z,994.27
2023-02-19T02:23:10.905Z,994.2
2023-02-19T02:24:12.641Z,994.29
2023-02-19T02:25:14.375Z,994.22
2023-02-19T02:26:16.164Z,994.25
2023-02-19T02:27:17.831Z,994.26
2023-02-19T02:28:19.571Z,994.22
2023-02-19T02:29:21.336Z,994.17
2023-02-19T02:30:23.116Z,994.14
2023-02-19T02:31:24.892Z,994.15
2023-02-19T02:32:26.520Z,994.19
2023-02-19T02:33:28.251Z,994.17
2023-02-19T02:34:29.990Z,994.16
2023-02-19T02:35:31.740Z,994.22
2023-02-19T02:36:33.459Z,994.2
2023-02-19T02:37:35.173Z,994.23
2023-02-19T02:38:36.925Z,994.29
2023-02-19T02:39:38.681Z,994.3
2023-02-19T02:40:40.392Z,994.26
2023-02-19T02:41:42.137Z,994.24
2023-02-19T02:42:43.859Z,994.15
2023-02-19T02:43:45.586Z,994.08
2023-02-19T02:44:47.355Z,994.18
2023-02-19T02:45:49.098Z,994.12
2023-02-19T02:46:50.776Z,994.19
2023-02-19T02:47:52.556Z,994.19
2023-02-19T02:48:54.261Z,994.2
2023-02-19T02:49:55.991Z,994.2
2023-02-19T02:50:57.717Z,994.18
2023-02-19T02:51:59.458Z,994.05
2023-02-19T02:53:01.215Z,994.13
2023-02-19T02:54:02.945Z,994.12
2023-02-19T02:55:04.658Z,994.05
2023-02-19T02:56:06.384Z,994.08
2023-02-19T02:57:08.130Z,994.04
2023-02-19T02:58:09.858Z,993.98
2023-02-19T02:59:11.824Z,993.99
2023-02-19T03:00:13.347Z,994
2023-02-19T03:01:15.204Z,994.01
2023-02-19T03:02:16.850Z,993.98
2023-02-19T03:03:18.537Z,994.02
2023-02-19T03:04:20.304Z,994.04
2023-02-19T03:05:22.017Z,994.04
2023-02-19T03:06:23.899Z,994
2023-02-19T03:07:25.491Z,993.97
2023-02-19T03:08:27.188Z,994.01
2023-02-19T03:09:28.945Z,993.95
2023-02-19T03:10:30.871Z,993.87
2023-02-19T03:11:32.410Z,993.94
2023-02-19T03:12:34.164Z,993.95
2023-02-19T03:13:35.878Z,993.93
2023-02-19T03:14:37.638Z,994
2023-02-19T03:15:39.350Z,993.97
2023-02-19T03:16:42.790Z,993.95
2023-02-19T03:17:42.804Z,993.96
2023-02-19T03:18:44.549Z,993.98
2023-02-19T03:19:46.274Z,993.93
2023-02-19T03:20:48.013Z,994.03
2023-02-19T03:21:49.744Z,994.03
2023-02-19T03:22:51.516Z,994.09
2023-02-19T03:23:53.242Z,994.11
2023-02-19T03:24:54.946Z,994.14
2023-02-19T03:25:56.665Z,994.08
2023-02-19T03:26:58.403Z,994.09
2023-02-19T03:28:00.150Z,994.04
2023-02-19T03:29:01.872Z,994.03
2023-02-19T03:30:03.665Z,993.95
2023-02-19T03:31:05.349Z,993.95
2023-02-19T03:32:07.102Z,993.93
2023-02-19T03:33:08.780Z,993.95
2023-02-19T03:34:10.510Z,993.99
2023-02-19T03:35:12.249Z,993.98
2023-02-19T03:36:14.003Z,994
2023-02-19T03:37:15.720Z,993.97
2023-02-19T03:38:17.429Z,993.88
2023-02-19T03:39:19.204Z,993.91
2023-02-19T03:40:20.925Z,993.9
2023-02-19T03:41:22.659Z,993.9
2023-02-19T03:42:24.571Z,993.92
2023-02-19T03:43:26.095Z,993.94
2023-02-19T03:44:27.855Z,993.91
2023-02-19T03:45:29.589Z,993.97
2023-02-19T03:46:31.315Z,993.95
2023-02-19T03:47:33.028Z,993.95
2023-02-19T03:48:34.775Z,993.95
2023-02-19T03:49:36.529Z,994
2023-02-19T03:50:38.238Z,993.94
2023-02-19T03:51:40.058Z,994.02
2023-02-19T03:52:41.691Z,994.07
2023-02-19T03:53:43.450Z,994
2023-02-19T03:54:45.210Z,994.03
2023-02-19T03:55:46.911Z,993.99
2023-02-19T03:56:48.624Z,994.06
2023-02-19T03:57:50.382Z,993.96
2023-02-19T03:58:52.105Z,994.04
2023-02-19T03:59:53.847Z,994.04
2023-02-19T04:00:55.589Z,994.03
2023-02-19T04:01:57.451Z,994.03
2023-02-19T04:02:59.038Z,994.05
2023-02-19T04:04:00.776Z,994.09
2023-02-19T04:05:02.515Z,994.08
2023-02-19T04:06:04.293Z,994.05
2023-02-19T04:07:05.988Z,994.05
2023-02-19T04:08:07.711Z,994.11
2023-02-19T04:09:09.453Z,994.04
2023-02-19T04:10:11.226Z,994.09
2023-02-19T04:11:12.925Z,994.01
2023-02-19T04:12:14.633Z,994.04
2023-02-19T04:13:16.384Z,993.98
2023-02-19T04:14:18.130Z,993.99
2023-02-19T04:15:19.876Z,993.98
2023-02-19T04:16:21.645Z,993.89
2023-02-19T04:17:23.311Z,993.95
2023-02-19T04:18:25.049Z,993.87
2023-02-19T04:19:26.786Z,993.92
2023-02-19T04:20:28.530Z,993.85
2023-02-19T04:21:30.278Z,993.86
2023-02-19T04:22:31.977Z,993.84
2023-02-19T04:23:33.716Z,993.87
2023-02-19T04:24:35.482Z,993.86
2023-02-19T04:25:37.221Z,993.94
2023-02-19T04:26:38.918Z,993.91
2023-02-19T04:27:40.686Z,993.97
2023-02-19T04:28:42.389Z,993.98
2023-02-19T04:29:44.126Z,994.05
2023-02-19T04:30:45.897Z,994.01
2023-02-19T04:31:47.682Z,994.08
2023-02-19T04:32:49.304Z,994.09
2023-02-19T04:33:51.054Z,994.08
2023-02-19T04:34:54.340Z,994.1
2023-02-19T04:35:54.505Z,994.1
2023-02-19T04:36:56.291Z,994.14
2023-02-19T04:37:57.981Z,994.17
2023-02-19T04:38:59.725Z,994.19
2023-02-19T04:40:01.467Z,994.18
2023-02-19T04:41:03.185Z,994.15
2023-02-19T04:42:04.915Z,994.16
2023-02-19T04:43:06.667Z,994.2
2023-02-19T04:44:08.412Z,994.22
2023-02-19T04:45:10.142Z,994.22
2023-02-19T04:46:11.961Z,994.23
2023-02-19T04:47:13.588Z,994.23
2023-02-19T04:48:15.322Z,994.32
2023-02-19T04:49:17.076Z,994.34
2023-02-19T04:50:18.795Z,994.4
2023-02-19T04:51:20.524Z,994.47
2023-02-19T04:52:22.252Z,994.41
2023-02-19T04:53:23.999Z,994.43
2023-02-19T04:54:25.760Z,994.47
2023-02-19T04:55:27.480Z,994.45
2023-02-19T04:56:29.204Z,994.51
2023-02-19T04:57:30.921Z,994.6
2023-02-19T04:58:32.663Z,994.47
2023-02-19T04:59:34.380Z,994.46
2023-02-19T05:00:36.142Z,994.47
2023-02-19T05:01:37.884Z,994.49
2023-02-19T05:02:39.625Z,994.48
2023-02-19T05:03:41.325Z,994.4
2023-02-19T05:04:43.113Z,994.48
2023-02-19T05:05:44.808Z,994.45
2023-02-19T05:06:46.531Z,994.39
2023-02-19T05:07:48.259Z,994.32
2023-02-19T05:08:49.986Z,994.39
2023-02-19T05:09:51.740Z,994.3
2023-02-19T05:10:53.418Z,994.26
2023-02-19T05:11:55.204Z,994.2
2023-02-19T05:12:58.069Z,994.23
2023-02-19T05:13:58.610Z,994.22
2023-02-19T05:15:00.359Z,994.28
2023-02-19T05:16:02.120Z,994.31
2023-02-19T05:17:03.817Z,994.36
2023-02-19T05:18:05.553Z,994.33
2023-02-19T05:19:07.290Z,994.41
2023-02-19T05:20:09.037Z,994.51
2023-02-19T05:21:11.078Z,994.64
2023-02-19T05:22:12.483Z,994.54
2023-02-19T05:23:14.231Z,994.57
2023-02-19T05:24:15.995Z,994.56
2023-02-19T05:25:17.720Z,994.61
2023-02-19T05:26:19.428Z,994.62
2023-02-19T05:27:21.159Z,994.62
2023-02-19T05:28:22.888Z,994.64
2023-02-19T05:29:24.615Z,994.62
2023-02-19T05:30:26.396Z,994.55
2023-02-19T05:31:28.267Z,994.58
2023-02-19T05:32:29.828Z,994.59
2023-02-19T05:33:31.567Z,994.58
2023-02-19T05:34:33.304Z,994.69
2023-02-19T05:35:35.026Z,994.67
2023-02-19T05:36:36.776Z,994.68
2023-02-19T05:37:38.510Z,994.74
2023-02-19T05:38:40.228Z,994.73
2023-02-19T05:39:41.962Z,994.81
2023-02-19T05:40:43.701Z,994.77
2023-02-19T05:41:45.437Z,994.83
2023-02-19T05:42:47.168Z,994.88
2023-02-19T05:43:48.918Z,994.84
2023-02-19T05:44:50.633Z,994.78
2023-02-19T05:45:52.571Z,994.66
2023-02-19T05:46:54.099Z,994.65
2023-02-19T05:47:55.974Z,994.63
2023-02-19T05:48:57.569Z,994.65
2023-02-19T05:49:59.306Z,994.71
2023-02-19T05:51:01.090Z,994.8
2023-02-19T05:52:02.764Z,994.81
2023-02-19T05:53:04.503Z,994.8
2023-02-19T05:54:06.230Z,994.9
2023-02-19T05:55:07.973Z,994.9
2023-02-19T05:56:09.737Z,994.89
2023-02-19T05:57:11.441Z,994.88
2023-02-19T05:58:13.180Z,995.01
2023-02-19T05:59:14.907Z,995
2023-02-19T06:00:16.694Z,995.01
2023-02-19T06:01:18.369Z,994.97
2023-02-19T06:02:20.112Z,994.98
2023-02-19T06:03:21.875Z,994.97
2023-02-19T06:04:23.630Z,994.96
2023-02-19T06:05:25.313Z,994.96
2023-02-19T06:06:27.072Z,995.1
2023-02-19T06:07:28.806Z,995.09
2023-02-19T06:08:30.508Z,995.08
2023-02-19T06:09:32.250Z,995.02
2023-02-19T06:10:34.011Z,995.08
2023-02-19T06:11:35.752Z,995.08
2023-02-19T06:12:37.439Z,995.09
2023-02-19T06:13:39.173Z,995.15
2023-02-19T06:14:40.898Z,995.15
2023-02-19T06:15:42.650Z,995.18
2023-02-19T06:16:44.382Z,995.2
2023-02-19T06:17:46.107Z,995.2
2023-02-19T06:18:47.860Z,995.24
2023-02-19T06:19:49.590Z,995.28
2023-02-19T06:20:51.340Z,995.24
2023-02-19T06:21:53.047Z,995.26
2023-02-19T06:22:54.841Z,995.3
2023-02-19T06:23:56.512Z,995.21
2023-02-19T06:24:58.251Z,995.34
2023-02-19T06:25:59.992Z,995.36
2023-02-19T06:27:01.710Z,995.34
2023-02-19T06:28:03.645Z,995.39
2023-02-19T06:29:05.196Z,995.38
2023-02-19T06:30:07.002Z,995.35
2023-02-19T06:31:08.888Z,995.35
2023-02-19T06:32:10.457Z,995.38
2023-02-19T06:33:12.125Z,995.39
2023-02-19T06:34:13.854Z,995.34
2023-02-19T06:35:15.601Z,995.38
2023-02-19T06:36:17.354Z,995.37
2023-02-19T06:37:19.069Z,995.38
2023-02-19T06:38:20.794Z,995.36
2023-02-19T06:39:22.550Z,995.38
2023-02-19T06:40:24.290Z,995.38
2023-02-19T06:41:26.000Z,995.37
2023-02-19T06:42:27.728Z,995.41
2023-02-19T06:43:29.470Z,995.42
2023-02-19T06:44:31.428Z,995.48
2023-02-19T06:45:32.916Z,995.41
2023-02-19T06:46:34.752Z,995.43
2023-02-19T06:47:36.378Z,995.44
2023-02-19T06:48:38.106Z,995.46
2023-02-19T06:49:40.014Z,995.51
2023-02-19T06:50:41.556Z,995.55
2023-02-19T06:51:43.289Z,995.57
2023-02-19T06:52:45.161Z,995.6
2023-02-19T06:53:46.830Z,995.66
2023-02-19T06:54:48.538Z,995.69
2023-02-19T06:55:50.284Z,995.71
2023-02-19T06:56:52.023Z,995.69
2023-02-19T06:57:53.739Z,995.72
2023-02-19T06:58:55.515Z,995.77
2023-02-19T06:59:57.213Z,995.75
2023-02-19T07:00:59.035Z,995.8
2023-02-19T07:02:00.717Z,995.86
2023-02-19T07:03:05.178Z,995.81
2023-02-19T07:04:04.209Z,995.86
2023-02-19T07:05:05.942Z,995.9
2023-02-19T07:06:07.637Z,995.81
2023-02-19T07:07:09.404Z,995.91
2023-02-19T07:08:11.217Z,995.86
2023-02-19T07:09:12.890Z,995.99
2023-02-19T07:10:14.567Z,995.95
2023-02-19T07:11:16.413Z,995.98
2023-02-19T07:12:18.099Z,996.01
2023-02-19T07:13:22.374Z,995.98
2023-02-19T07:14:26.574Z,995.94
2023-02-19T07:15:28.315Z,995.96
2023-02-19T07:16:30.218Z,995.93
2023-02-19T07:17:31.800Z,995.94
2023-02-19T07:18:33.510Z,995.98
2023-02-19T07:19:35.238Z,995.97
2023-02-19T07:20:36.998Z,996
2023-02-19T07:21:38.725Z,996.02
2023-02-19T07:22:40.459Z,995.93
2023-02-19T07:23:42.206Z,996
2023-02-19T07:24:44.780Z,995.99
2023-02-19T07:25:45.658Z,995.99
2023-02-19T07:26:47.393Z,995.97
2023-02-19T07:27:49.112Z,995.95
2023-02-19T07:28:50.856Z,996.01
2023-02-19T07:29:52.589Z,995.95
2023-02-19T07:30:54.409Z,995.97
2023-02-19T07:31:56.091Z,995.98
2023-02-19T07:32:57.780Z,996.02
2023-02-19T07:33:59.529Z,995.96
2023-02-19T07:35:01.265Z,996
2023-02-19T07:36:03.050Z,996.02
2023-02-19T07:37:04.792Z,996.05
2023-02-19T07:38:06.450Z,996.04
2023-02-19T07:39:10.110Z,996.05
2023-02-19T07:40:09.977Z,996.06
2023-02-19T07:41:12.087Z,996.06
2023-02-19T07:42:13.400Z,996.08
2023-02-19T07:43:15.203Z,996.18
2023-02-19T07:44:16.903Z,996.18
2023-02-19T07:45:19.004Z,996.2
2023-02-19T07:46:20.454Z,996.21
2023-02-19T07:47:22.368Z,996.22
2023-02-19T07:48:24.111Z,996.2
2023-02-19T07:49:28.672Z,996.21
2023-02-19T07:50:28.962Z,996.24
2023-02-19T07:51:29.248Z,996.29
2023-02-19T07:52:30.977Z,996.25
2023-02-19T07:53:32.693Z,996.31
2023-02-19T07:54:34.459Z,996.34
2023-02-19T07:55:36.192Z,996.37
2023-02-19T07:56:37.933Z,996.4
2023-02-19T07:57:39.858Z,996.36
2023-02-19T07:58:41.358Z,996.4
2023-02-19T07:59:43.124Z,996.4
2023-02-19T08:00:44.870Z,996.42
2023-02-19T08:01:46.608Z,996.44
2023-02-19T08:02:48.321Z,996.42
2023-02-19T08:03:50.584Z,996.45
2023-02-19T08:04:51.785Z,996.47
2023-02-19T08:05:53.515Z,996.45
2023-02-19T08:06:55.246Z,996.45
2023-02-19T08:07:56.973Z,996.51
2023-02-19T08:08:59.503Z,996.46
2023-02-19T08:10:01.290Z,996.51
2023-02-19T08:11:02.997Z,996.55
2023-02-19T08:12:04.725Z,996.59
2023-02-19T08:13:06.435Z,996.58
2023-02-19T08:14:08.162Z,996.55
2023-02-19T08:15:09.910Z,996.63
2023-02-19T08:16:19.942Z,996.59
2023-02-19T08:17:13.400Z,996.66
2023-02-19T08:18:15.106Z,996.6
2023-02-19T08:19:16.835Z,996.66
2023-02-19T08:20:18.600Z,996.67
2023-02-19T08:21:20.338Z,996.71
2023-02-19T08:22:22.046Z,996.72
2023-02-19T08:23:23.764Z,996.67
2023-02-19T08:24:25.516Z,996.76
2023-02-19T08:25:27.580Z,996.81
2023-02-19T08:26:28.989Z,996.82
2023-02-19T08:27:30.695Z,996.85
2023-02-19T08:28:32.421Z,996.86
2023-02-19T08:29:34.141Z,996.94
2023-02-19T08:30:36.032Z,996.94
2023-02-19T08:31:37.774Z,997
2023-02-19T08:32:39.324Z,997.01
2023-02-19T08:33:41.117Z,996.97
2023-02-19T08:34:48.991Z,996.99
2023-02-19T08:35:51.245Z,996.99
2023-02-19T08:36:51.476Z,996.99
2023-02-19T08:37:53.186Z,997.02
2023-02-19T08:39:05.276Z,997.05
2023-02-19T08:40:06.980Z,997.08
2023-02-19T08:41:08.953Z,997.05
2023-02-19T08:42:10.436Z,997.13
2023-02-19T08:43:13.367Z,997.14
2023-02-19T08:44:13.868Z,997.15
2023-02-19T08:45:15.638Z,997.23
2023-02-19T08:46:17.404Z,997.25
2023-02-19T08:47:19.124Z,997.23
2023-02-19T08:48:20.842Z,997.24
2023-02-19T08:49:22.536Z,997.23
2023-02-19T08:50:24.378Z,997.3
2023-02-19T08:51:26.006Z,997.34
2023-02-19T08:52:27.740Z,997.32
2023-02-19T08:53:29.473Z,997.38
2023-02-19T08:54:31.336Z,997.42
2023-02-19T08:55:32.929Z,997.38
2023-02-19T08:56:34.670Z,997.37
2023-02-19T08:57:36.403Z,997.4
2023-02-19T08:58:38.143Z,997.4
2023-02-19T08:59:39.909Z,997.42
2023-02-19T09:00:41.648Z,997.37
2023-02-19T09:01:43.386Z,997.44
2023-02-19T09:02:45.060Z,997.43
2023-02-19T09:03:46.819Z,997.44
2023-02-19T09:04:48.563Z,997.45
2023-02-19T09:05:50.302Z,997.48
2023-02-19T09:06:51.996Z,997.48
2023-02-19T09:07:53.819Z,997.44
2023-02-19T09:08:55.491Z,997.44
2023-02-19T09:09:57.247Z,997.46
2023-02-19T09:10:58.981Z,997.49
2023-02-19T09:12:00.710Z,997.47
2023-02-19T09:13:02.447Z,997.47
2023-02-19T09:14:04.173Z,997.47
2023-02-19T09:15:05.913Z,997.47
2023-02-19T09:16:09.017Z,997.47
2023-02-19T09:17:09.391Z,997.47
2023-02-19T09:18:11.127Z,997.47
2023-02-19T09:19:12.848Z,997.5
2023-02-19T09:20:14.536Z,997.51
2023-02-19T09:21:16.329Z,997.38
2023-02-19T09:22:18.112Z,997.52
2023-02-19T09:23:21.062Z,997.47
2023-02-19T09:24:21.467Z,997.48
2023-02-19T09:25:23.161Z,997.46
2023-02-19T09:26:24.913Z,997.52
2023-02-19T09:27:26.643Z,997.47
2023-02-19T09:28:28.410Z,997.53
2023-02-19T09:29:30.172Z,997.54
2023-02-19T09:30:31.980Z,997.53
2023-02-19T09:31:33.734Z,997.61
2023-02-19T09:32:35.383Z,997.59
2023-02-19T09:33:37.153Z,997.62
2023-02-19T09:34:38.810Z,997.57
2023-02-19T09:35:40.635Z,997.54
2023-02-19T09:36:42.261Z,997.52
2023-02-19T09:37:44.041Z,997.58
2023-02-19T09:38:45.788Z,997.55
2023-02-19T09:39:47.493Z,997.6
2023-02-19T09:40:49.266Z,997.59
2023-02-19T09:41:51.011Z,997.59
2023-02-19T09:42:52.667Z,997.55
2023-02-19T09:43:54.418Z,997.57
2023-02-19T09:44:56.186Z,997.55
2023-02-19T09:45:57.992Z,997.61
2023-02-19T09:46:59.639Z,997.57
2023-02-19T09:48:01.376Z,997.69
2023-02-19T09:49:03.075Z,997.61
2023-02-19T09:50:04.853Z,997.59
2023-02-19T09:51:06.619Z,997.58
2023-02-19T09:52:08.461Z,997.53
2023-02-19T09:53:10.070Z,997.56
2023-02-19T09:54:11.775Z,997.65
2023-02-19T09:55:13.503Z,997.59
2023-02-19T09:56:15.277Z,997.58
2023-02-19T09:57:16.984Z,997.59
2023-02-19T09:58:18.776Z,997.57
2023-02-19T09:59:20.467Z,997.61
2023-02-19T10:00:22.196Z,997.63
2023-02-19T10:02:08.970Z,997.61
2023-02-19T10:03:09.493Z,997.68
2023-02-19T10:04:10.372Z,997.6
2023-02-19T10:05:12.128Z,997.62
2023-02-19T10:06:13.859Z,997.6
2023-02-19T10:07:15.552Z,997.56
2023-02-19T10:08:17.262Z,997.68
2023-02-19T10:09:18.975Z,997.63
2023-02-19T10:10:20.783Z,997.68
2023-02-19T10:11:22.468Z,997.7
2023-02-19T10:12:24.159Z,997.68
2023-02-19T10:13:25.888Z,997.73
2023-02-19T10:14:27.736Z,997.69
2023-02-19T10:15:29.398Z,997.7
2023-02-19T10:16:31.115Z,997.68
2023-02-19T10:17:32.850Z,997.71
2023-02-19T10:18:34.552Z,997.7
2023-02-19T10:19:36.324Z,997.7
2023-02-19T10:20:38.123Z,997.63
2023-02-19T10:21:39.757Z,997.68
2023-02-19T10:22:41.496Z,997.72
2023-02-19T10:23:43.195Z,997.79
2023-02-19T10:24:44.944Z,997.75
2023-02-19T10:25:50.929Z,997.73
2023-02-19T10:26:53.542Z,997.78
2023-02-19T10:27:55.277Z,997.8
2023-02-19T10:28:57.045Z,997.78
2023-02-19T10:29:58.795Z,997.84
2023-02-19T10:31:00.574Z,997.89
2023-02-19T10:32:02.261Z,997.9
2023-02-19T10:33:27.795Z,997.97
2023-02-19T10:34:29.512Z,998.02
2023-02-19T10:35:32.442Z,998.05
2023-02-19T10:36:35.769Z,997.99
2023-02-19T10:37:38.012Z,998.03
2023-02-19T10:38:47.676Z,998.04
2023-02-19T10:39:48.578Z,998.07
2023-02-19T10:40:50.290Z,998.1
2023-02-19T10:41:51.983Z,998.09
2023-02-19T10:42:53.715Z,998.19
2023-02-19T10:43:55.459Z,998.24
2023-02-19T10:44:57.191Z,998.21
2023-02-19T10:45:58.919Z,998.22
2023-02-19T10:47:00.702Z,998.35
2023-02-19T10:48:02.406Z,998.35
2023-02-19T10:49:04.153Z,998.37
2023-02-19T10:50:05.865Z,998.38
2023-02-19T10:51:07.586Z,998.32
2023-02-19T10:52:09.331Z,998.34
2023-02-19T10:53:11.063Z,998.41
2023-02-19T10:54:12.803Z,998.47
2023-02-19T10:55:14.552Z,998.56
2023-02-19T10:56:16.264Z,998.62
2023-02-19T10:57:18.000Z,998.6
2023-02-19T10:58:19.722Z,998.59
2023-02-19T10:59:21.470Z,998.57
2023-02-19T11:00:23.264Z,998.59
2023-02-19T11:01:25.033Z,998.59
2023-02-19T11:02:26.666Z,998.56
2023-02-19T11:03:28.547Z,998.55
2023-02-19T11:04:30.213Z,998.51
2023-02-19T11:05:31.911Z,998.51
2023-02-19T11:06:35.071Z,998.49
2023-02-19T11:07:35.344Z,998.45
2023-02-19T11:08:37.074Z,998.45
2023-02-19T11:09:38.803Z,998.42
2023-02-19T11:10:40.535Z,998.5
2023-02-19T11:11:42.259Z,998.46
2023-02-19T11:12:44.007Z,998.6
2023-02-19T11:13:45.747Z,998.6
2023-02-19T11:14:47.466Z,998.58
2023-02-19T11:15:49.246Z,998.61
2023-02-19T11:16:50.942Z,998.59
2023-02-19T11:17:52.681Z,998.56
2023-02-19T11:18:56.885Z,998.58
2023-02-19T11:19:56.133Z,998.52
2023-02-19T11:20:57.864Z,998.5
2023-02-19T11:21:59.595Z,998.53
2023-02-19T11:23:01.345Z,998.51
2023-02-19T11:24:03.055Z,998.49
2023-02-19T11:25:04.792Z,998.52
2023-02-19T11:26:06.616Z,998.51
2023-02-19T11:27:08.264Z,998.59
2023-02-19T11:28:10.027Z,998.58
2023-02-19T11:29:11.748Z,998.59
2023-02-19T11:30:13.533Z,998.64
2023-02-19T11:31:15.838Z,998.64
2023-02-19T11:32:17.166Z,998.67
2023-02-19T11:33:18.678Z,998.59
2023-02-19T11:34:20.404Z,998.56
2023-02-19T11:35:22.147Z,998.51
2023-02-19T11:36:23.900Z,998.51
2023-02-19T11:37:25.607Z,998.57
2023-02-19T11:38:27.362Z,998.53
2023-02-19T11:39:29.097Z,998.54
2023-02-19T11:40:30.815Z,998.5
2023-02-19T11:41:32.543Z,998.49
2023-02-19T11:42:34.278Z,998.53
2023-02-19T11:43:36.025Z,998.46
2023-02-19T11:44:37.748Z,998.42
2023-02-19T11:45:39.489Z,998.49
2023-02-19T11:46:41.244Z,998.45
2023-02-19T11:47:42.951Z,998.46
2023-02-19T11:48:44.685Z,998.49
2023-02-19T11:49:46.394Z,998.55
2023-02-19T11:50:48.106Z,998.51
2023-02-19T11:51:52.720Z,998.49
2023-02-19T11:52:51.587Z,998.5
2023-02-19T11:53:53.306Z,998.52
2023-02-19T11:54:55.046Z,998.6
2023-02-19T11:55:56.791Z,998.7
2023-02-19T11:56:58.499Z,998.72
2023-02-19T11:58:00.228Z,998.78
2023-02-19T11:59:02.078Z,998.74
2023-02-19T12:00:03.738Z,998.81
2023-02-19T12:01:05.502Z,998.82
2023-02-19T12:02:07.235Z,998.77
2023-02-19T12:03:08.943Z,998.78
2023-02-19T12:04:09.663Z,998.76
2023-02-19T12:05:10.242Z,998.8
2023-02-19T12:06:17.434Z,998.82
2023-02-19T12:07:22.148Z,998.83
2023-02-19T12:08:20.440Z,998.85
2023-02-19T12:09:22.216Z,998.89
2023-02-19T12:10:23.933Z,998.88
2023-02-19T12:11:25.657Z,998.84
2023-02-19T12:12:28.557Z,998.77
2023-02-19T12:13:29.120Z,998.82
2023-02-19T12:14:30.860Z,998.76
2023-02-19T12:15:32.586Z,998.72
2023-02-19T12:16:34.466Z,998.72
2023-02-19T12:17:39.959Z,998.69
2023-02-19T12:23:38.466Z,998.64
2023-02-19T12:29:41.147Z,998.53
2023-02-19T12:30:42.896Z,998.54
2023-02-19T12:31:44.637Z,998.54
2023-02-19T12:32:51.588Z,998.57
2023-02-19T12:33:53.286Z,998.57
2023-02-19T12:34:55.002Z,998.6
2023-02-19T12:35:56.718Z,998.53
2023-02-19T12:36:58.482Z,998.59
2023-02-19T12:38:00.165Z,998.61
2023-02-19T12:39:01.948Z,998.56
2023-02-19T12:40:03.638Z,998.56
2023-02-19T12:41:05.387Z,998.59
2023-02-19T12:42:07.348Z,998.54
2023-02-19T12:43:08.949Z,998.55
2023-02-19T12:44:10.648Z,998.59
2023-02-19T12:45:12.392Z,998.57
2023-02-19T12:46:14.649Z,998.56
2023-02-19T12:47:15.876Z,998.57
2023-02-19T12:48:17.597Z,998.58
2023-02-19T12:49:19.349Z,998.57
2023-02-19T12:50:21.056Z,998.54
2023-02-19T12:51:22.778Z,998.61
2023-02-19T12:52:24.553Z,998.5
2023-02-19T12:53:26.269Z,998.52
2023-02-19T12:54:27.975Z,998.53
2023-02-19T12:55:29.754Z,998.46
2023-02-19T12:56:31.487Z,998.44
2023-02-19T12:57:33.249Z,998.47
2023-02-19T12:58:35.006Z,998.39
2023-02-19T13:00:30.935Z,998.47
2023-02-19T13:01:32.626Z,998.45
2023-02-19T13:02:44.445Z,998.47
2023-02-19T13:03:44.938Z,998.47
2023-02-19T13:05:09.898Z,998.51
2023-02-19T13:06:13.919Z,998.45